sensor_id;sensor_type;location;lat;lon;timestamp;P1;durP1;ratioP1;P2;durP2;ratioP2
54959;SDS011;40860;51.710;8.736;2023-06-14T00:06:50;6.30;;;3.20;;
54959;SDS011;40860;51.710;8.736;2023-06-14T00:10:53;5.25;;;2.88;;
54959;SDS011;40860;51.710;8.736;2023-06-14T00:14:56;4.75;;;3.40;;
54959;SDS011;40860;51.710;8.736;2023-06-14T00:18:59;8.18;;;3.30;;
54959;SDS011;40860;51.710;8.736;2023-06-14T00:23:05;5.82;;;2.92;;
54959;SDS011;40860;51.710;8.736;2023-06-14T00:27:08;6.50;;;3.05;;
54959;SDS011;40860;51.710;8.736;2023-06-14T00:31:11;4.88;;;2.92;;
54959;SDS011;40860;51.710;8.736;2023-06-14T00:35:14;5.57;;;3.40;;
54959;SDS011;40860;51.710;8.736;2023-06-14T00:39:19;3.28;;;2.95;;
54959;SDS011;40860;51.710;8.736;2023-06-14T00:43:22;5.57;;;3.05;;
54959;SDS011;40860;51.710;8.736;2023-06-14T00:47:25;5.25;;;3.30;;
54959;SDS011;40860;51.710;8.736;2023-06-14T00:51:29;8.95;;;3.03;;
54959;SDS011;40860;51.710;8.736;2023-06-14T00:55:35;3.67;;;2.83;;
54959;SDS011;40860;51.710;8.736;2023-06-14T00:59:38;3.83;;;2.70;;
54959;SDS011;40860;51.710;8.736;2023-06-14T01:03:44;4.32;;;2.78;;
54959;SDS011;40860;51.710;8.736;2023-06-14T01:07:54;3.80;;;2.80;;
54959;SDS011;40860;51.710;8.736;2023-06-14T01:12:10;3.90;;;2.55;;
54959;SDS011;40860;51.710;8.736;2023-06-14T01:16:18;4.97;;;3.38;;
54959;SDS011;40860;51.710;8.736;2023-06-14T01:20:22;5.15;;;2.75;;
54959;SDS011;40860;51.710;8.736;2023-06-14T01:24:32;5.35;;;3.38;;
54959;SDS011;40860;51.710;8.736;2023-06-14T01:28:36;3.78;;;2.95;;
54959;SDS011;40860;51.710;8.736;2023-06-14T01:32:39;3.22;;;2.78;;
54959;SDS011;40860;51.710;8.736;2023-06-14T01:36:44;5.20;;;2.88;;
54959;SDS011;40860;51.710;8.736;2023-06-14T01:40:49;6.85;;;2.97;;
54959;SDS011;40860;51.710;8.736;2023-06-14T01:44:54;5.93;;;3.17;;
54959;SDS011;40860;51.710;8.736;2023-06-14T01:48:57;3.65;;;3.10;;
54959;SDS011;40860;51.710;8.736;2023-06-14T01:53:02;3.63;;;2.78;;
54959;SDS011;40860;51.710;8.736;2023-06-14T01:57:06;3.88;;;2.55;;
54959;SDS011;40860;51.710;8.736;2023-06-14T02:01:11;4.82;;;2.53;;
54959;SDS011;40860;51.710;8.736;2023-06-14T02:05:14;3.03;;;2.75;;
54959;SDS011;40860;51.710;8.736;2023-06-14T02:09:20;3.53;;;2.88;;
54959;SDS011;40860;51.710;8.736;2023-06-14T02:13:24;4.20;;;2.58;;
54959;SDS011;40860;51.710;8.736;2023-06-14T02:17:27;2.95;;;2.42;;
54959;SDS011;40860;51.710;8.736;2023-06-14T02:21:30;6.65;;;2.95;;
54959;SDS011;40860;51.710;8.736;2023-06-14T02:25:33;2.92;;;2.33;;
54959;SDS011;40860;51.710;8.736;2023-06-14T02:29:38;3.30;;;2.90;;
54959;SDS011;40860;51.710;8.736;2023-06-14T02:33:41;3.80;;;2.78;;
54959;SDS011;40860;51.710;8.736;2023-06-14T02:37:44;4.38;;;2.88;;
54959;SDS011;40860;51.710;8.736;2023-06-14T02:41:46;3.55;;;2.63;;
54959;SDS011;40860;51.710;8.736;2023-06-14T02:45:51;5.75;;;2.58;;
54959;SDS011;40860;51.710;8.736;2023-06-14T02:49:55;8.38;;;2.75;;
54959;SDS011;40860;51.710;8.736;2023-06-14T02:53:58;4.53;;;2.78;;
54959;SDS011;40860;51.710;8.736;2023-06-14T02:58:01;4.30;;;2.70;;
54959;SDS011;40860;51.710;8.736;2023-06-14T03:02:05;2.97;;;2.75;;
54959;SDS011;40860;51.710;8.736;2023-06-14T03:06:09;3.90;;;3.30;;
54959;SDS011;40860;51.710;8.736;2023-06-14T03:10:17;3.15;;;2.90;;
54959;SDS011;40860;51.710;8.736;2023-06-14T03:14:20;3.58;;;2.92;;
54959;SDS011;40860;51.710;8.736;2023-06-14T03:18:25;3.28;;;2.97;;
54959;SDS011;40860;51.710;8.736;2023-06-14T03:22:30;3.60;;;3.28;;
54959;SDS011;40860;51.710;8.736;2023-06-14T03:26:34;8.00;;;3.55;;
54959;SDS011;40860;51.710;8.736;2023-06-14T03:30:38;5.40;;;3.38;;
54959;SDS011;40860;51.710;8.736;2023-06-14T03:34:43;4.88;;;3.60;;
54959;SDS011;40860;51.710;8.736;2023-06-14T03:38:52;4.47;;;3.20;;
54959;SDS011;40860;51.710;8.736;2023-06-14T03:42:55;5.97;;;3.10;;
54959;SDS011;40860;51.710;8.736;2023-06-14T03:46:58;4.15;;;2.85;;
54959;SDS011;40860;51.710;8.736;2023-06-14T03:51:04;3.53;;;3.25;;
54959;SDS011;40860;51.710;8.736;2023-06-14T03:55:07;3.72;;;2.83;;
54959;SDS011;40860;51.710;8.736;2023-06-14T03:59:15;3.95;;;3.22;;
54959;SDS011;40860;51.710;8.736;2023-06-14T04:03:18;4.18;;;3.15;;
54959;SDS011;40860;51.710;8.736;2023-06-14T04:07:28;3.72;;;2.88;;
54959;SDS011;40860;51.710;8.736;2023-06-14T04:11:32;3.90;;;3.10;;
54959;SDS011;40860;51.710;8.736;2023-06-14T04:15:35;4.55;;;3.28;;
54959;SDS011;40860;51.710;8.736;2023-06-14T04:19:38;5.15;;;3.35;;
54959;SDS011;40860;51.710;8.736;2023-06-14T04:23:43;3.72;;;3.15;;
54959;SDS011;40860;51.710;8.736;2023-06-14T04:27:48;4.28;;;3.17;;
54959;SDS011;40860;51.710;8.736;2023-06-14T04:31:53;4.80;;;3.10;;
54959;SDS011;40860;51.710;8.736;2023-06-14T04:36:00;4.40;;;3.10;;
54959;SDS011;40860;51.710;8.736;2023-06-14T04:40:05;4.97;;;3.30;;
54959;SDS011;40860;51.710;8.736;2023-06-14T04:44:13;5.15;;;3.42;;
54959;SDS011;40860;51.710;8.736;2023-06-14T04:48:20;4.22;;;3.00;;
54959;SDS011;40860;51.710;8.736;2023-06-14T04:52:23;3.40;;;2.92;;
54959;SDS011;40860;51.710;8.736;2023-06-14T04:56:30;5.18;;;3.50;;
54959;SDS011;40860;51.710;8.736;2023-06-14T05:00:33;3.40;;;3.00;;
54959;SDS011;40860;51.710;8.736;2023-06-14T05:04:37;6.47;;;3.63;;
54959;SDS011;40860;51.710;8.736;2023-06-14T05:08:42;3.83;;;2.95;;
54959;SDS011;40860;51.710;8.736;2023-06-14T05:12:47;4.95;;;3.20;;
54959;SDS011;40860;51.710;8.736;2023-06-14T05:16:52;7.20;;;3.38;;
54959;SDS011;40860;51.710;8.736;2023-06-14T05:20:55;7.65;;;3.10;;
54959;SDS011;40860;51.710;8.736;2023-06-14T05:24:58;4.93;;;2.97;;
54959;SDS011;40860;51.710;8.736;2023-06-14T05:29:02;4.00;;;3.03;;
54959;SDS011;40860;51.710;8.736;2023-06-14T05:33:06;5.20;;;2.72;;
54959;SDS011;40860;51.710;8.736;2023-06-14T05:37:09;3.95;;;2.95;;
54959;SDS011;40860;51.710;8.736;2023-06-14T05:41:12;4.90;;;2.30;;
54959;SDS011;40860;51.710;8.736;2023-06-14T05:45:17;4.32;;;2.08;;
54959;SDS011;40860;51.710;8.736;2023-06-14T05:49:20;2.78;;;2.55;;
54959;SDS011;40860;51.710;8.736;2023-06-14T05:53:22;2.30;;;2.10;;
54959;SDS011;40860;51.710;8.736;2023-06-14T05:57:25;2.65;;;1.63;;
54959;SDS011;40860;51.710;8.736;2023-06-14T06:01:29;2.35;;;1.50;;
54959;SDS011;40860;51.710;8.736;2023-06-14T06:05:35;1.67;;;1.55;;
54959;SDS011;40860;51.710;8.736;2023-06-14T06:09:38;3.03;;;1.75;;
54959;SDS011;40860;51.710;8.736;2023-06-14T06:13:40;1.95;;;1.85;;
54959;SDS011;40860;51.710;8.736;2023-06-14T06:17:45;2.75;;;2.10;;
54959;SDS011;40860;51.710;8.736;2023-06-14T06:21:56;2.97;;;2.10;;
54959;SDS011;40860;51.710;8.736;2023-06-14T06:26:02;2.90;;;2.00;;
54959;SDS011;40860;51.710;8.736;2023-06-14T06:30:09;4.40;;;2.22;;
54959;SDS011;40860;51.710;8.736;2023-06-14T06:34:37;5.55;;;2.38;;
54959;SDS011;40860;51.710;8.736;2023-06-14T06:38:42;3.10;;;2.13;;
54959;SDS011;40860;51.710;8.736;2023-06-14T06:43:04;2.85;;;1.90;;
54959;SDS011;40860;51.710;8.736;2023-06-14T06:47:35;3.20;;;1.85;;
54959;SDS011;40860;51.710;8.736;2023-06-14T06:51:53;2.65;;;1.77;;
54959;SDS011;40860;51.710;8.736;2023-06-14T06:56:12;2.15;;;2.03;;
54959;SDS011;40860;51.710;8.736;2023-06-14T07:00:23;2.15;;;1.95;;
54959;SDS011;40860;51.710;8.736;2023-06-14T07:04:29;2.35;;;2.00;;
54959;SDS011;40860;51.710;8.736;2023-06-14T07:08:33;4.20;;;1.70;;
54959;SDS011;40860;51.710;8.736;2023-06-14T07:12:37;2.00;;;1.90;;
54959;SDS011;40860;51.710;8.736;2023-06-14T07:16:43;2.70;;;1.85;;
54959;SDS011;40860;51.710;8.736;2023-06-14T07:20:50;2.55;;;1.90;;
54959;SDS011;40860;51.710;8.736;2023-06-14T07:24:56;1.50;;;1.40;;
54959;SDS011;40860;51.710;8.736;2023-06-14T07:29:06;5.32;;;1.60;;
54959;SDS011;40860;51.710;8.736;2023-06-14T07:33:21;3.35;;;1.80;;
54959;SDS011;40860;51.710;8.736;2023-06-14T07:37:52;3.05;;;1.77;;
54959;SDS011;40860;51.710;8.736;2023-06-14T07:41:56;1.80;;;1.70;;
54959;SDS011;40860;51.710;8.736;2023-06-14T07:45:59;2.38;;;2.08;;
54959;SDS011;40860;51.710;8.736;2023-06-14T07:50:08;1.98;;;1.80;;
54959;SDS011;40860;51.710;8.736;2023-06-14T07:54:13;6.93;;;1.90;;
54959;SDS011;40860;51.710;8.736;2023-06-14T07:58:17;2.95;;;1.95;;
54959;SDS011;40860;51.710;8.736;2023-06-14T08:02:30;2.08;;;1.88;;
54959;SDS011;40860;51.710;8.736;2023-06-14T08:06:34;3.28;;;1.98;;
54959;SDS011;40860;51.710;8.736;2023-06-14T08:10:37;2.65;;;2.50;;
54959;SDS011;40860;51.710;8.736;2023-06-14T08:14:47;3.35;;;2.08;;
54959;SDS011;40860;51.710;8.736;2023-06-14T08:19:01;2.22;;;2.13;;
54959;SDS011;40860;51.710;8.736;2023-06-14T08:23:05;3.92;;;2.33;;
54959;SDS011;40860;51.710;8.736;2023-06-14T08:27:10;2.33;;;2.13;;
54959;SDS011;40860;51.710;8.736;2023-06-14T08:31:15;3.67;;;2.33;;
54959;SDS011;40860;51.710;8.736;2023-06-14T08:35:18;2.67;;;2.47;;
54959;SDS011;40860;51.710;8.736;2023-06-14T08:39:26;3.60;;;2.53;;
54959;SDS011;40860;51.710;8.736;2023-06-14T08:43:41;3.08;;;2.42;;
54959;SDS011;40860;51.710;8.736;2023-06-14T08:47:55;4.05;;;2.60;;
54959;SDS011;40860;51.710;8.736;2023-06-14T08:52:15;8.60;;;3.10;;
54959;SDS011;40860;51.710;8.736;2023-06-14T08:56:24;2.67;;;2.47;;
54959;SDS011;40860;51.710;8.736;2023-06-14T09:00:29;4.97;;;2.50;;
54959;SDS011;40860;51.710;8.736;2023-06-14T09:04:38;2.78;;;2.45;;
54959;SDS011;40860;51.710;8.736;2023-06-14T09:08:48;2.60;;;2.35;;
54959;SDS011;40860;51.710;8.736;2023-06-14T09:13:03;2.88;;;2.17;;
54959;SDS011;40860;51.710;8.736;2023-06-14T09:17:12;2.60;;;2.33;;
54959;SDS011;40860;51.710;8.736;2023-06-14T09:21:33;3.38;;;2.58;;
54959;SDS011;40860;51.710;8.736;2023-06-14T09:27:14;4.93;;;2.88;;
54959;SDS011;40860;51.710;8.736;2023-06-14T09:31:32;5.28;;;3.10;;
54959;SDS011;40860;51.710;8.736;2023-06-14T09:35:38;3.80;;;2.90;;
54959;SDS011;40860;51.710;8.736;2023-06-14T09:39:52;3.35;;;3.05;;
54959;SDS011;40860;51.710;8.736;2023-06-14T09:43:55;43.88;;;6.88;;
54959;SDS011;40860;51.710;8.736;2023-06-14T09:48:02;7.85;;;2.88;;
54959;SDS011;40860;51.710;8.736;2023-06-14T09:52:10;3.03;;;2.35;;
54959;SDS011;40860;51.710;8.736;2023-06-14T09:56:17;3.00;;;2.70;;
54959;SDS011;40860;51.710;8.736;2023-06-14T10:00:31;3.97;;;3.00;;
54959;SDS011;40860;51.710;8.736;2023-06-14T10:04:38;4.93;;;2.63;;
54959;SDS011;40860;51.710;8.736;2023-06-14T10:08:57;3.20;;;2.90;;
54959;SDS011;40860;51.710;8.736;2023-06-14T10:14:03;2.95;;;2.70;;
54959;SDS011;40860;51.710;8.736;2023-06-14T10:18:38;3.55;;;2.47;;
54959;SDS011;40860;51.710;8.736;2023-06-14T10:22:49;3.95;;;2.58;;
54959;SDS011;40860;51.710;8.736;2023-06-14T10:26:56;3.13;;;2.63;;
54959;SDS011;40860;51.710;8.736;2023-06-14T10:31:02;3.42;;;2.60;;
54959;SDS011;40860;51.710;8.736;2023-06-14T10:35:15;3.30;;;2.42;;
54959;SDS011;40860;51.710;8.736;2023-06-14T10:39:19;4.38;;;2.78;;
54959;SDS011;40860;51.710;8.736;2023-06-14T10:43:22;4.20;;;2.80;;
54959;SDS011;40860;51.710;8.736;2023-06-14T10:47:29;2.53;;;2.25;;
54959;SDS011;40860;51.710;8.736;2023-06-14T10:51:38;3.15;;;2.53;;
54959;SDS011;40860;51.710;8.736;2023-06-14T10:55:47;2.67;;;2.47;;
54959;SDS011;40860;51.710;8.736;2023-06-14T10:59:53;3.05;;;2.25;;
54959;SDS011;40860;51.710;8.736;2023-06-14T11:04:00;3.30;;;2.28;;
54959;SDS011;40860;51.710;8.736;2023-06-14T11:08:17;4.35;;;2.50;;
54959;SDS011;40860;51.710;8.736;2023-06-14T11:12:29;2.38;;;2.17;;
54959;SDS011;40860;51.710;8.736;2023-06-14T11:16:36;2.38;;;2.22;;
54959;SDS011;40860;51.710;8.736;2023-06-14T11:20:41;5.53;;;2.80;;
54959;SDS011;40860;51.710;8.736;2023-06-14T11:24:44;2.60;;;2.40;;
54959;SDS011;40860;51.710;8.736;2023-06-14T11:28:47;5.10;;;2.67;;
54959;SDS011;40860;51.710;8.736;2023-06-14T11:32:50;3.85;;;2.67;;
54959;SDS011;40860;51.710;8.736;2023-06-14T11:37:00;4.00;;;2.63;;
54959;SDS011;40860;51.710;8.736;2023-06-14T11:41:03;3.13;;;2.80;;
54959;SDS011;40860;51.710;8.736;2023-06-14T11:45:07;6.03;;;3.15;;
54959;SDS011;40860;51.710;8.736;2023-06-14T11:49:11;3.28;;;2.97;;
54959;SDS011;40860;51.710;8.736;2023-06-14T11:53:15;3.65;;;2.72;;
54959;SDS011;40860;51.710;8.736;2023-06-14T11:57:18;3.13;;;2.90;;
54959;SDS011;40860;51.710;8.736;2023-06-14T12:01:21;3.08;;;2.60;;
54959;SDS011;40860;51.710;8.736;2023-06-14T12:05:24;7.03;;;3.25;;
54959;SDS011;40860;51.710;8.736;2023-06-14T12:09:30;2.90;;;2.70;;
54959;SDS011;40860;51.710;8.736;2023-06-14T12:13:34;3.88;;;2.42;;
54959;SDS011;40860;51.710;8.736;2023-06-14T12:17:41;3.47;;;2.45;;
54959;SDS011;40860;51.710;8.736;2023-06-14T12:21:46;2.50;;;2.30;;
54959;SDS011;40860;51.710;8.736;2023-06-14T12:25:52;2.97;;;2.67;;
54959;SDS011;40860;51.710;8.736;2023-06-14T12:29:59;3.95;;;2.78;;
54959;SDS011;40860;51.710;8.736;2023-06-14T12:34:02;2.97;;;2.67;;
54959;SDS011;40860;51.710;8.736;2023-06-14T12:38:05;2.97;;;2.60;;
54959;SDS011;40860;51.710;8.736;2023-06-14T12:42:10;6.43;;;2.30;;
54959;SDS011;40860;51.710;8.736;2023-06-14T12:46:15;3.67;;;2.40;;
54959;SDS011;40860;51.710;8.736;2023-06-14T12:50:31;3.33;;;2.40;;
54959;SDS011;40860;51.710;8.736;2023-06-14T12:54:34;2.80;;;2.60;;
54959;SDS011;40860;51.710;8.736;2023-06-14T12:58:43;2.88;;;2.67;;
54959;SDS011;40860;51.710;8.736;2023-06-14T13:02:46;2.80;;;2.60;;
54959;SDS011;40860;51.710;8.736;2023-06-14T13:06:49;2.63;;;2.42;;
54959;SDS011;40860;51.710;8.736;2023-06-14T13:10:51;2.50;;;2.22;;
54959;SDS011;40860;51.710;8.736;2023-06-14T13:14:56;3.67;;;2.47;;
54959;SDS011;40860;51.710;8.736;2023-06-14T13:18:59;5.63;;;2.63;;
54959;SDS011;40860;51.710;8.736;2023-06-14T13:23:01;3.65;;;2.47;;
54959;SDS011;40860;51.710;8.736;2023-06-14T13:27:14;2.17;;;2.00;;
54959;SDS011;40860;51.710;8.736;2023-06-14T13:31:19;2.63;;;2.13;;
54959;SDS011;40860;51.710;8.736;2023-06-14T13:35:22;2.38;;;2.17;;
54959;SDS011;40860;51.710;8.736;2023-06-14T13:39:26;2.65;;;2.33;;
54959;SDS011;40860;51.710;8.736;2023-06-14T13:43:29;2.55;;;2.42;;
54959;SDS011;40860;51.710;8.736;2023-06-14T13:47:35;2.42;;;2.33;;
54959;SDS011;40860;51.710;8.736;2023-06-14T13:51:38;2.60;;;2.40;;
54959;SDS011;40860;51.710;8.736;2023-06-14T13:55:41;3.08;;;2.40;;
54959;SDS011;40860;51.710;8.736;2023-06-14T14:00:36;3.17;;;2.22;;
54959;SDS011;40860;51.710;8.736;2023-06-14T14:39:00;3.20;;;1.73;;
54959;SDS011;40860;51.710;8.736;2023-06-14T14:49:55;2.53;;;1.90;;
54959;SDS011;40860;51.710;8.736;2023-06-14T15:10:17;2.47;;;2.20;;
54959;SDS011;40860;51.710;8.736;2023-06-14T15:20:31;2.65;;;2.30;;
54959;SDS011;40860;51.710;8.736;2023-06-14T15:41:34;2.78;;;2.15;;
54959;SDS011;40860;51.710;8.736;2023-06-14T15:45:37;6.78;;;2.80;;
54959;SDS011;40860;51.710;8.736;2023-06-14T15:49:45;2.72;;;2.20;;
54959;SDS011;40860;51.710;8.736;2023-06-14T15:54:16;2.40;;;2.15;;
54959;SDS011;40860;51.710;8.736;2023-06-14T15:58:27;2.70;;;2.45;;
54959;SDS011;40860;51.710;8.736;2023-06-14T16:02:34;3.40;;;2.40;;
54959;SDS011;40860;51.710;8.736;2023-06-14T16:06:52;3.75;;;2.67;;
54959;SDS011;40860;51.710;8.736;2023-06-14T16:10:58;2.70;;;2.50;;
54959;SDS011;40860;51.710;8.736;2023-06-14T16:15:01;3.00;;;2.70;;
54959;SDS011;40860;51.710;8.736;2023-06-14T16:19:04;4.75;;;2.75;;
54959;SDS011;40860;51.710;8.736;2023-06-14T16:23:11;3.95;;;2.60;;
54959;SDS011;40860;51.710;8.736;2023-06-14T16:27:14;3.33;;;3.03;;
54959;SDS011;40860;51.710;8.736;2023-06-14T16:31:20;4.47;;;2.95;;
54959;SDS011;40860;51.710;8.736;2023-06-14T16:35:23;5.43;;;3.50;;
54959;SDS011;40860;51.710;8.736;2023-06-14T16:39:28;5.43;;;3.75;;
54959;SDS011;40860;51.710;8.736;2023-06-14T16:43:31;3.70;;;3.40;;
54959;SDS011;40860;51.710;8.736;2023-06-14T16:47:34;5.03;;;3.10;;
54959;SDS011;40860;51.710;8.736;2023-06-14T16:51:37;3.22;;;2.92;;
54959;SDS011;40860;51.710;8.736;2023-06-14T16:55:41;4.43;;;2.78;;
54959;SDS011;40860;51.710;8.736;2023-06-14T16:59:45;5.40;;;3.20;;
54959;SDS011;40860;51.710;8.736;2023-06-14T17:03:48;5.28;;;3.35;;
54959;SDS011;40860;51.710;8.736;2023-06-14T17:07:52;3.25;;;3.00;;
54959;SDS011;40860;51.710;8.736;2023-06-14T17:11:56;3.88;;;3.20;;
54959;SDS011;40860;51.710;8.736;2023-06-14T17:16:04;5.55;;;3.53;;
54959;SDS011;40860;51.710;8.736;2023-06-14T17:26:04;5.35;;;3.55;;
54959;SDS011;40860;51.710;8.736;2023-06-14T17:30:46;3.78;;;3.38;;
54959;SDS011;40860;51.710;8.736;2023-06-14T17:35:11;3.55;;;3.25;;
54959;SDS011;40860;51.710;8.736;2023-06-14T17:39:35;3.55;;;3.25;;
54959;SDS011;40860;51.710;8.736;2023-06-14T17:43:43;5.20;;;3.17;;
54959;SDS011;40860;51.710;8.736;2023-06-14T17:48:01;5.18;;;3.45;;
54959;SDS011;40860;51.710;8.736;2023-06-14T17:52:21;8.00;;;3.50;;
54959;SDS011;40860;51.710;8.736;2023-06-14T17:56:29;7.97;;;4.60;;
54959;SDS011;40860;51.710;8.736;2023-06-14T18:00:41;5.70;;;4.18;;
54959;SDS011;40860;51.710;8.736;2023-06-14T18:04:55;6.55;;;3.83;;
54959;SDS011;40860;51.710;8.736;2023-06-14T18:09:10;5.25;;;3.75;;
54959;SDS011;40860;51.710;8.736;2023-06-14T18:13:23;3.55;;;3.25;;
54959;SDS011;40860;51.710;8.736;2023-06-14T18:22:41;3.53;;;3.20;;
54959;SDS011;40860;51.710;8.736;2023-06-14T18:26:58;5.15;;;3.40;;
54959;SDS011;40860;51.710;8.736;2023-06-14T18:31:10;7.60;;;5.03;;
54959;SDS011;40860;51.710;8.736;2023-06-14T18:35:22;5.47;;;3.90;;
54959;SDS011;40860;51.710;8.736;2023-06-14T18:39:27;6.40;;;3.55;;
54959;SDS011;40860;51.710;8.736;2023-06-14T18:43:32;11.60;;;4.60;;
54959;SDS011;40860;51.710;8.736;2023-06-14T18:47:38;5.10;;;3.55;;
54959;SDS011;40860;51.710;8.736;2023-06-14T18:51:42;7.93;;;4.20;;
54959;SDS011;40860;51.710;8.736;2023-06-14T18:55:48;6.50;;;3.83;;
54959;SDS011;40860;51.710;8.736;2023-06-14T18:59:55;6.68;;;3.90;;
54959;SDS011;40860;51.710;8.736;2023-06-14T19:04:00;6.78;;;4.57;;
54959;SDS011;40860;51.710;8.736;2023-06-14T19:08:04;11.82;;;5.00;;
54959;SDS011;40860;51.710;8.736;2023-06-14T19:12:11;6.32;;;4.20;;
54959;SDS011;40860;51.710;8.736;2023-06-14T19:16:16;7.95;;;4.20;;
54959;SDS011;40860;51.710;8.736;2023-06-14T19:20:21;9.00;;;5.13;;
54959;SDS011;40860;51.710;8.736;2023-06-14T19:24:27;7.63;;;4.47;;
54959;SDS011;40860;51.710;8.736;2023-06-14T19:28:32;7.88;;;4.82;;
54959;SDS011;40860;51.710;8.736;2023-06-14T19:32:37;7.15;;;5.38;;
54959;SDS011;40860;51.710;8.736;2023-06-14T19:36:41;7.03;;;4.60;;
54959;SDS011;40860;51.710;8.736;2023-06-14T19:40:44;5.63;;;4.00;;
54959;SDS011;40860;51.710;8.736;2023-06-14T19:44:52;4.60;;;3.95;;
54959;SDS011;40860;51.710;8.736;2023-06-14T19:48:57;4.93;;;4.43;;
54959;SDS011;40860;51.710;8.736;2023-06-14T19:53:01;6.20;;;4.40;;
54959;SDS011;40860;51.710;8.736;2023-06-14T19:57:05;6.22;;;4.85;;
54959;SDS011;40860;51.710;8.736;2023-06-14T20:01:11;5.43;;;4.35;;
54959;SDS011;40860;51.710;8.736;2023-06-14T20:05:18;7.38;;;4.40;;
54959;SDS011;40860;51.710;8.736;2023-06-14T20:09:24;6.93;;;4.35;;
54959;SDS011;40860;51.710;8.736;2023-06-14T20:13:46;4.38;;;3.97;;
54959;SDS011;40860;51.710;8.736;2023-06-14T20:28:17;8.27;;;4.05;;
54959;SDS011;40860;51.710;8.736;2023-06-14T20:32:27;6.32;;;4.20;;
54959;SDS011;40860;51.710;8.736;2023-06-14T20:36:50;5.38;;;4.00;;
54959;SDS011;40860;51.710;8.736;2023-06-14T20:41:09;6.00;;;4.15;;
54959;SDS011;40860;51.710;8.736;2023-06-14T20:45:35;8.68;;;3.92;;
54959;SDS011;40860;51.710;8.736;2023-06-14T20:49:49;4.28;;;3.75;;
54959;SDS011;40860;51.710;8.736;2023-06-14T20:54:07;8.10;;;3.75;;
54959;SDS011;40860;51.710;8.736;2023-06-14T20:58:30;4.63;;;3.53;;
54959;SDS011;40860;51.710;8.736;2023-06-14T21:03:40;6.15;;;3.92;;
54959;SDS011;40860;51.710;8.736;2023-06-14T21:08:07;5.00;;;3.47;;
54959;SDS011;40860;51.710;8.736;2023-06-14T21:21:30;7.78;;;4.10;;
54959;SDS011;40860;51.710;8.736;2023-06-14T21:25:58;5.60;;;4.13;;
54959;SDS011;40860;51.710;8.736;2023-06-14T21:30:08;7.38;;;4.25;;
54959;SDS011;40860;51.710;8.736;2023-06-14T21:34:17;8.02;;;4.53;;
54959;SDS011;40860;51.710;8.736;2023-06-14T21:38:27;9.57;;;4.55;;
54959;SDS011;40860;51.710;8.736;2023-06-14T21:42:43;5.03;;;4.15;;
54959;SDS011;40860;51.710;8.736;2023-06-14T21:47:11;5.47;;;4.20;;
54959;SDS011;40860;51.710;8.736;2023-06-14T21:51:33;5.68;;;4.10;;
54959;SDS011;40860;51.710;8.736;2023-06-14T21:55:47;6.53;;;4.22;;
54959;SDS011;40860;51.710;8.736;2023-06-14T21:59:56;6.50;;;4.05;;
54959;SDS011;40860;51.710;8.736;2023-06-14T22:04:20;7.07;;;3.97;;
54959;SDS011;40860;51.710;8.736;2023-06-14T22:08:46;4.22;;;3.83;;
54959;SDS011;40860;51.710;8.736;2023-06-14T22:13:09;5.90;;;4.20;;
54959;SDS011;40860;51.710;8.736;2023-06-14T22:17:15;7.60;;;3.90;;
54959;SDS011;40860;51.710;8.736;2023-06-14T22:21:28;4.40;;;4.00;;
54959;SDS011;40860;51.710;8.736;2023-06-14T22:25:58;5.65;;;3.90;;
54959;SDS011;40860;51.710;8.736;2023-06-14T22:30:58;8.93;;;4.40;;
54959;SDS011;40860;51.710;8.736;2023-06-14T22:35:33;5.07;;;3.90;;
54959;SDS011;40860;51.710;8.736;2023-06-14T22:40:53;4.60;;;4.10;;
54959;SDS011;40860;51.710;8.736;2023-06-14T22:45:07;5.03;;;4.07;;
54959;SDS011;40860;51.710;8.736;2023-06-14T22:49:18;4.90;;;4.15;;
54959;SDS011;40860;51.710;8.736;2023-06-14T22:53:22;4.85;;;4.25;;
54959;SDS011;40860;51.710;8.736;2023-06-14T22:57:26;4.68;;;4.15;;
54959;SDS011;40860;51.710;8.736;2023-06-14T23:01:29;4.38;;;3.92;;
54959;SDS011;40860;51.710;8.736;2023-06-14T23:05:33;5.18;;;4.35;;
54959;SDS011;40860;51.710;8.736;2023-06-14T23:09:36;5.10;;;4.60;;
54959;SDS011;40860;51.710;8.736;2023-06-14T23:13:40;5.20;;;4.07;;
54959;SDS011;40860;51.710;8.736;2023-06-14T23:17:45;5.03;;;3.97;;
54959;SDS011;40860;51.710;8.736;2023-06-14T23:21:52;5.93;;;4.07;;
54959;SDS011;40860;51.710;8.736;2023-06-14T23:26:00;6.97;;;4.50;;
54959;SDS011;40860;51.710;8.736;2023-06-14T23:30:03;7.43;;;4.10;;
54959;SDS011;40860;51.710;8.736;2023-06-14T23:34:07;6.85;;;4.10;;
54959;SDS011;40860;51.710;8.736;2023-06-14T23:38:11;7.72;;;4.10;;
54959;SDS011;40860;51.710;8.736;2023-06-14T23:42:16;4.93;;;4.30;;
54959;SDS011;40860;51.710;8.736;2023-06-14T23:46:20;6.50;;;4.18;;
54959;SDS011;40860;51.710;8.736;2023-06-14T23:50:25;6.93;;;3.90;;
54959;SDS011;40860;51.710;8.736;2023-06-14T23:54:29;5.07;;;3.95;;
54959;SDS011;40860;51.710;8.736;2023-06-14T23:58:34;6.03;;;4.35;;
